ENVA/TRD METAR and TAF weather

Enter ICAO airport designator
Station Type Date Time Source
ENVA METAR 2022/05/26 04:50 UTC NOAA

ENVA 260450Z 12006KT CAVOK 09/06 Q0998 NOSIG RMK WIND 670FT 13004KT


Station Type Date Time Source
ENVA Decoded METAR 2022/05/26 04:50 UTC NOAA

Trondheim / Vaernes, Norway (ENVA) 63-28N 010-56E 17M
May 26, 2022 - 12:50 AM EDT / 2022.05.26 0450 UTC
Wind: from the ESE (120 degrees) at 7 MPH (6 KT):0
Visibility: greater than 7 mile(s):0
Temperature: 48 F (9 C)
Dew Point: 42 F (6 C)
Relative Humidity: 81%
Pressure (altimeter): 29.47 in. Hg (0998 hPa)
ob: ENVA 260450Z 12006KT CAVOK 09/06 Q0998 NOSIG RMK WIND 670FT 13004KT
cycle: 5

Station Type Date Time Source
ENVA TAF 2022/05/25 18:57 UTC NOAA

TAF ENVA 251700Z 2518/2618 08008KT 9999 FEW030 BKN060 PROB30
TEMPO 2518/2522 SHRA SCT030CB BKN040
BECMG 2607/2610 28015KT
TEMPO 2609/2618 28018G218KT 4000 SHRA BKN012CB

Example: see airport list